Time;durP1;ratioP1;P1;durP2;ratioP2;P2;SDS_P1;SDS_P2;PMS_P1;PMS_P2;Temp;Humidity;BMP_temperature;BMP_pressure;BME280_temperature;BME280_humidity;BME280_pressure;Samples;Min_cycle;Max_cycle;Signal;HPM_P1;HPM_P2
2022/06/08 00:00:33;;;;;;;;;;;;;;;13.81;88.07;96277.53;5085969;28;19959;-74
2022/06/08 00:03:05;;;;;;;;;;;;;;;13.79;87.67;96277.75;5094289;28;19966;-74
2022/06/08 00:05:31;;;;;;;;;;;;;;;13.79;87.93;96271.69;5094047;28;19967;-74
2022/06/08 00:07:57;;;;;;;;;;;;;;;13.74;87.96;96279.53;5093157;28;19963;-74
2022/06/08 00:10:23;;;;;;;;;;;;;;;13.72;88.04;96265.81;5092916;28;19963;-74
2022/06/08 00:12:49;;;;;;;;;;;;;;;13.66;87.56;96259.66;5092984;28;19980;-74
2022/06/08 00:15:15;;;;;;;;;;;;;;;13.66;87.63;96269.41;5094209;28;19956;-73
2022/06/08 00:17:41;;;;;;;;;;;;;;;13.64;87.56;96268.84;5093154;28;20303;-73
2022/06/08 00:20:08;;;;;;;;;;;;;;;13.61;87.84;96264.88;5092882;28;19977;-74
2022/06/08 00:22:34;;;;;;;;;;;;;;;13.61;87.17;96262.25;5091947;28;19996;-74
2022/06/08 00:25:00;;;;;;;;;;;;;;;13.60;87.66;96261.41;5075763;28;19966;-74
2022/06/08 00:27:26;;;;;;;;;;;;;;;13.58;87.94;96260.06;5092943;28;20039;-73
2022/06/08 00:29:52;;;;;;;;;;;;;;;13.58;87.98;96254.78;5092685;28;20027;-74
2022/06/08 00:32:18;;;;;;;;;;;;;;;13.57;88.19;96255.84;5092949;28;19996;-74
2022/06/08 00:34:44;;;;;;;;;;;;;;;13.57;88.21;96258.50;5092922;28;19957;-73
2022/06/08 00:37:10;;;;;;;;;;;;;;;13.56;87.96;96252.41;5093956;28;19960;-74
2022/06/08 00:39:37;;;;;;;;;;;;;;;13.55;88.28;96250.81;5092389;28;19958;-74
2022/06/08 00:42:05;;;;;;;;;;;;;;;13.54;88.01;96251.06;5091917;28;19969;-73
2022/06/08 00:44:37;;;;;;;;;;;;;;;13.53;88.30;96252.09;5093518;28;19953;-74
2022/06/08 00:47:04;;;;;;;;;;;;;;;13.52;88.05;96247.84;5092702;28;19956;-74
2022/06/08 00:49:31;;;;;;;;;;;;;;;13.52;88.21;96251.31;5092944;28;19978;-74
2022/06/08 00:51:58;;;;;;;;;;;;;;;13.52;88.62;96242.59;5091404;28;19971;-74
2022/06/08 00:54:30;;;;;;;;;;;;;;;13.51;88.78;96243.63;5093688;28;19972;-74
2022/06/08 00:57:00;;;;;;;;;;;;;;;13.52;88.71;96243.41;5092596;28;19971;-74
2022/06/08 00:59:26;;;;;;;;;;;;;;;13.54;88.68;96243.16;5092712;28;19954;-74
2022/06/08 01:01:52;;;;;;;;;;;;;;;13.53;88.50;96241.56;5091405;28;19957;-74
2022/06/08 01:04:19;;;;;;;;;;;;;;;13.49;88.28;96235.97;5092510;28;19954;-73
2022/06/08 01:06:49;;;;;;;;;;;;;;;13.48;88.02;96239.66;5089981;28;19954;-74
2022/06/08 01:09:23;;;;;;;;;;;;;;;13.48;87.84;96236.19;5093692;28;19952;-74
2022/06/08 01:11:49;;;;;;;;;;;;;;;13.46;87.75;96233.00;5083506;28;19983;-73
2022/06/08 01:14:17;;;;;;;;;;;;;;;13.44;87.75;96232.44;5092455;28;19959;-74
2022/06/08 01:16:45;;;;;;;;;;;;;;;13.42;87.12;96227.44;5073965;28;19958;-74
2022/06/08 01:19:11;;;;;;;;;;;;;;;13.40;87.66;96229.53;5092746;28;19961;-75
2022/06/08 01:21:37;;;;;;;;;;;;;;;13.38;87.49;96223.69;5092612;28;19958;-74
2022/06/08 01:24:05;;;;;;;;;;;;;;;13.36;87.12;96223.13;5092259;28;19960;-74
2022/06/08 01:26:34;;;;;;;;;;;;;;;13.33;87.62;96228.88;5092425;28;20323;-73
2022/06/08 01:29:03;;;;;;;;;;;;;;;13.32;87.25;96219.38;5057683;28;19955;-74
2022/06/08 01:31:42;;;;;;;;;;;;;;;13.31;87.32;96230.94;5087097;28;19986;-76
2022/06/08 01:34:13;;;;;;;;;;;;;;;13.28;86.71;96224.31;5094106;28;20336;-74
2022/06/08 01:36:46;;;;;;;;;;;;;;;13.26;86.78;96215.06;5096297;28;19958;-73
2022/06/08 01:39:30;;;;;;;;;;;;;;;13.23;87.00;96213.69;5097441;28;19967;-74
2022/06/08 01:42:02;;;;;;;;;;;;;;;13.20;87.00;96217.59;5096645;28;19956;-73
2022/06/08 01:45:28;;;;;;;;;;;;;;;13.17;87.04;96219.94;5096041;28;19962;-77
2022/06/08 01:47:40;;;;;;;;;;;;;;;13.13;86.86;96210.91;5094141;28;19961;-73
2022/06/08 01:50:20;;;;;;;;;;;;;;;13.10;86.63;96214.81;5095607;28;19955;-74
2022/06/08 01:52:54;;;;;;;;;;;;;;;13.07;87.25;96215.28;5077764;28;19980;-74
2022/06/08 01:55:46;;;;;;;;;;;;;;;13.04;87.04;96209.69;5096177;28;19953;-74
2022/06/08 01:58:12;;;;;;;;;;;;;;;13.02;87.01;96215.22;5096500;28;19968;-74
2022/06/08 02:00:51;;;;;;;;;;;;;;;12.99;87.08;96213.03;5095859;28;19959;-75
2022/06/08 02:03:28;;;;;;;;;;;;;;;12.95;86.93;96210.09;5094473;28;19957;-75
2022/06/08 02:06:00;;;;;;;;;;;;;;;12.92;86.91;96209.78;5096669;28;19964;-76
2022/06/08 02:08:26;;;;;;;;;;;;;;;12.88;86.90;96206.03;5096400;28;19963;-77
2022/06/08 02:10:55;;;;;;;;;;;;;;;12.84;86.70;96202.28;5096827;28;20045;-76
2022/06/08 02:13:21;;;;;;;;;;;;;;;12.80;86.69;96196.69;5092489;28;20123;-76
2022/06/08 02:15:49;;;;;;;;;;;;;;;12.77;86.30;96190.06;5096891;28;20480;-76
2022/06/08 02:18:38;;;;;;;;;;;;;;;12.75;85.95;96188.72;5094726;28;19959;-76
2022/06/08 02:21:14;;;;;;;;;;;;;;;12.72;85.83;96189.19;5090562;28;19964;-83
2022/06/08 02:23:41;;;;;;;;;;;;;;;12.68;86.38;96186.25;5095580;28;19959;-78
2022/06/08 02:26:12;;;;;;;;;;;;;;;12.68;86.14;96193.31;5094721;28;19959;-77
2022/06/08 02:28:41;;;;;;;;;;;;;;;12.65;86.08;96185.91;5082135;28;19957;-76
2022/06/08 02:31:18;;;;;;;;;;;;;;;12.64;85.98;96182.50;5092922;28;19992;-74
2022/06/08 02:36:34;;;;;;;;;;;;;;;12.58;86.20;96183.44;5082121;28;19978;-73
2022/06/08 02:39:05;;;;;;;;;;;;;;;12.56;86.62;96173.13;5096162;28;19963;-74
2022/06/08 02:41:32;;;;;;;;;;;;;;;12.55;86.73;96184.69;5095308;28;19955;-73
2022/06/08 02:44:03;;;;;;;;;;;;;;;12.54;87.09;96175.22;5094810;28;19958;-74
2022/06/08 02:46:39;;;;;;;;;;;;;;;12.52;87.16;96169.38;5093548;28;19984;-74
2022/06/08 02:49:06;;;;;;;;;;;;;;;12.51;87.28;96170.41;5096082;28;19953;-73
2022/06/08 02:51:32;;;;;;;;;;;;;;;12.52;87.14;96173.84;5094925;28;19969;-73
2022/06/08 02:54:19;;;;;;;;;;;;;;;12.51;87.13;96169.59;5048954;28;19962;-74
2022/06/08 02:56:56;;;;;;;;;;;;;;;12.48;87.37;96178.78;5094888;28;19962;-73
2022/06/08 02:59:28;;;;;;;;;;;;;;;12.47;87.23;96166.66;5081293;28;20302;-73
2022/06/08 03:02:00;;;;;;;;;;;;;;;12.43;87.14;96165.56;5094574;28;20354;-74
2022/06/08 03:04:30;;;;;;;;;;;;;;;12.42;87.29;96169.19;5094218;28;20417;-74
2022/06/08 03:06:58;;;;;;;;;;;;;;;12.40;87.52;96160.75;5094641;28;20439;-74
2022/06/08 03:09:24;;;;;;;;;;;;;;;12.38;87.54;96154.94;5095196;28;19961;-74
2022/06/08 03:11:53;;;;;;;;;;;;;;;12.33;87.56;96150.38;5093957;28;20055;-74
2022/06/08 03:14:19;;;;;;;;;;;;;;;12.30;87.60;96157.94;5093906;28;19967;-73
2022/06/08 03:16:54;;;;;;;;;;;;;;;12.27;88.15;96156.59;5094055;28;19952;-74
2022/06/08 03:19:20;;;;;;;;;;;;;;;12.29;88.23;96144.00;5095180;28;19964;-75
2022/06/08 03:21:46;;;;;;;;;;;;;;;12.31;88.45;96149.03;5093663;28;20444;-74
2022/06/08 03:24:13;;;;;;;;;;;;;;;12.32;89.02;96148.78;5094165;28;19957;-74
2022/06/08 03:26:41;;;;;;;;;;;;;;;12.34;88.78;96146.69;5092951;28;19963;-74
2022/06/08 03:29:07;;;;;;;;;;;;;;;12.37;88.95;96159.41;5094910;28;19953;-74
2022/06/08 03:31:33;;;;;;;;;;;;;;;12.38;88.83;96145.19;5093772;28;20071;-74
2022/06/08 03:33:59;;;;;;;;;;;;;;;12.39;89.13;96138.91;5094062;28;20003;-74
2022/06/08 03:36:25;;;;;;;;;;;;;;;12.38;88.77;96142.56;5093598;28;20020;-73
2022/06/08 03:38:51;;;;;;;;;;;;;;;12.39;89.51;96140.75;5076556;28;19958;-73
2022/06/08 03:41:17;;;;;;;;;;;;;;;12.40;89.64;96139.72;5093782;28;19970;-73
2022/06/08 03:43:43;;;;;;;;;;;;;;;12.39;89.56;96138.13;5092307;28;20072;-74
2022/06/08 03:46:10;;;;;;;;;;;;;;;12.39;89.19;96140.75;5075547;28;19964;-73
2022/06/08 03:48:37;;;;;;;;;;;;;;;12.42;88.98;96144.75;5075388;28;19961;-73
2022/06/08 03:51:03;;;;;;;;;;;;;;;12.41;88.84;96143.94;5094505;28;19967;-73
2022/06/08 03:53:31;;;;;;;;;;;;;;;12.42;88.46;96140.28;5093560;28;19981;-73
2022/06/08 03:55:57;;;;;;;;;;;;;;;12.43;88.70;96143.69;5093343;28;19965;-73
2022/06/08 03:58:23;;;;;;;;;;;;;;;12.43;88.72;96144.50;5084210;28;19972;-73
2022/06/08 04:00:50;;;;;;;;;;;;;;;12.43;88.68;96143.69;5056544;28;20423;-73
2022/06/08 04:03:16;;;;;;;;;;;;;;;12.42;88.52;96142.13;5094294;28;19954;-73
2022/06/08 04:05:42;;;;;;;;;;;;;;;12.43;88.18;96143.69;5093457;28;19958;-74
2022/06/08 04:08:09;;;;;;;;;;;;;;;12.45;87.98;96136.38;5091420;28;19962;-74
2022/06/08 04:10:35;;;;;;;;;;;;;;;12.45;87.69;96134.56;5094025;28;19955;-77
2022/06/08 04:13:01;;;;;;;;;;;;;;;12.47;88.49;96142.97;5093484;28;19970;-73
2022/06/08 04:15:42;;;;;;;;;;;;;;;12.49;88.33;96146.16;5094152;28;19959;-73
2022/06/08 04:18:10;;;;;;;;;;;;;;;12.51;88.71;96145.94;5092989;28;19964;-73
2022/06/08 04:20:39;;;;;;;;;;;;;;;12.54;88.60;96154.16;5094146;28;19961;-74
2022/06/08 04:23:05;;;;;;;;;;;;;;;12.56;89.10;96151.31;5093339;28;19962;-74
2022/06/08 04:25:31;;;;;;;;;;;;;;;12.58;88.14;96146.59;5093994;28;19961;-73
2022/06/08 04:27:57;;;;;;;;;;;;;;;12.55;86.56;96144.44;5091691;28;19972;-73
2022/06/08 04:30:23;;;;;;;;;;;;;;;12.47;87.00;96153.50;5093916;28;19986;-74
2022/06/08 04:32:49;;;;;;;;;;;;;;;12.45;87.06;96141.63;5090531;28;19981;-75
2022/06/08 04:35:17;;;;;;;;;;;;;;;12.46;90.92;96137.97;5087674;28;19980;-74
2022/06/08 04:37:46;;;;;;;;;;;;;;;12.54;88.60;96135.75;5091201;28;19962;-74
2022/06/08 04:40:14;;;;;;;;;;;;;;;12.58;88.21;96134.25;5091916;28;20008;-74
2022/06/08 04:42:40;;;;;;;;;;;;;;;12.60;87.17;96126.13;5092710;28;20019;-75
2022/06/08 04:45:06;;;;;;;;;;;;;;;12.57;86.84;96124.75;5091911;28;19965;-74
2022/06/08 04:47:33;;;;;;;;;;;;;;;12.54;87.62;96116.56;5092533;28;19958;-74
2022/06/08 04:49:59;;;;;;;;;;;;;;;12.50;87.00;96121.47;5091833;28;19964;-75
2022/06/08 04:52:24;;;;;;;;;;;;;;;12.41;87.06;96117.66;5091155;28;19972;-74
2022/06/08 04:54:50;;;;;;;;;;;;;;;12.39;87.73;96130.25;5092657;28;19974;-74
2022/06/08 04:57:16;;;;;;;;;;;;;;;12.41;88.54;96135.25;5090335;28;19977;-74
2022/06/08 04:59:42;;;;;;;;;;;;;;;12.44;89.20;96132.16;5091377;28;19987;-78
2022/06/08 05:02:08;;;;;;;;;;;;;;;12.43;87.82;96131.38;5073615;28;20455;-74
2022/06/08 05:04:34;;;;;;;;;;;;;;;12.45;88.57;96136.38;5093465;28;20000;-75
2022/06/08 05:07:00;;;;;;;;;;;;;;;12.47;88.38;96131.66;5078311;28;19969;-74
2022/06/08 05:09:26;;;;;;;;;;;;;;;12.42;88.94;96132.38;5077174;28;19953;-74
2022/06/08 05:11:52;;;;;;;;;;;;;;;12.41;88.49;96143.94;5097356;28;19969;-74
2022/06/08 05:14:18;;;;;;;;;;;;;;;12.41;88.79;96146.59;5097563;28;19961;-74
2022/06/08 05:16:45;;;;;;;;;;;;;;;12.41;89.05;96135.25;5097375;28;20423;-74
2022/06/08 05:19:11;;;;;;;;;;;;;;;12.39;89.19;96138.13;5097617;28;19969;-74
2022/06/08 05:21:37;;;;;;;;;;;;;;;12.37;88.34;96140.19;5097582;28;20467;-74
2022/06/08 05:24:03;;;;;;;;;;;;;;;12.36;88.95;96138.59;5097333;28;20006;-73
2022/06/08 05:26:29;;;;;;;;;;;;;;;12.36;88.68;96136.75;5097368;28;19970;-74
2022/06/08 05:28:55;;;;;;;;;;;;;;;12.39;89.05;96133.66;5097244;28;20047;-73
2022/06/08 05:31:21;;;;;;;;;;;;;;;12.42;89.42;96129.75;5097317;28;20028;-73
2022/06/08 05:33:47;;;;;;;;;;;;;;;12.48;88.96;96136.69;5097103;28;20437;-73
2022/06/08 05:36:13;;;;;;;;;;;;;;;12.52;90.81;96129.94;5097264;28;20380;-73
2022/06/08 05:38:39;;;;;;;;;;;;;;;12.55;88.94;96123.38;5097329;28;19961;-74
2022/06/08 05:41:05;;;;;;;;;;;;;;;12.57;88.96;96121.31;5097050;28;20002;-73
2022/06/08 05:43:30;;;;;;;;;;;;;;;12.63;90.19;96130.09;5096891;28;20509;-74
2022/06/08 05:45:56;;;;;;;;;;;;;;;12.66;89.47;96125.16;5097066;28;19968;-74
2022/06/08 05:48:23;;;;;;;;;;;;;;;12.68;89.79;96125.72;5078943;28;19959;-74
2022/06/08 05:50:49;;;;;;;;;;;;;;;12.70;88.39;96120.22;5096763;28;19957;-74
2022/06/08 05:53:34;;;;;;;;;;;;;;;12.67;87.31;96110.19;5096936;28;19973;-74
2022/06/08 05:56:00;;;;;;;;;;;;;;;12.67;88.37;96113.59;5096736;28;19955;-74
2022/06/08 05:58:26;;;;;;;;;;;;;;;12.69;88.86;96108.09;5096892;28;19962;-74
2022/06/08 06:00:51;;;;;;;;;;;;;;;12.71;89.35;96100.78;5096557;28;20042;-74
2022/06/08 06:03:18;;;;;;;;;;;;;;;12.75;88.74;96112.41;5096658;28;19962;-74
2022/06/08 06:05:44;;;;;;;;;;;;;;;12.75;88.44;96109.78;5096472;28;19953;-74
2022/06/08 06:08:11;;;;;;;;;;;;;;;12.76;88.31;96114.00;5096714;28;19960;-74
2022/06/08 06:10:38;;;;;;;;;;;;;;;12.74;88.47;96108.97;5096637;28;19952;-74
2022/06/08 06:13:04;;;;;;;;;;;;;;;12.74;86.14;96113.44;5096995;28;20434;-74
2022/06/08 06:15:30;;;;;;;;;;;;;;;12.73;87.01;96112.66;5095233;28;19959;-75
2022/06/08 06:17:57;;;;;;;;;;;;;;;12.73;87.95;96103.97;5096525;28;19961;-74
2022/06/08 06:20:23;;;;;;;;;;;;;;;12.73;87.26;96109.22;5095501;28;19958;-74
2022/06/08 06:22:58;;;;;;;;;;;;;;;12.77;88.40;96119.03;5090965;28;19957;-74
2022/06/08 06:25:24;;;;;;;;;;;;;;;12.83;89.32;96100.66;5096099;28;19963;-74
2022/06/08 06:27:50;;;;;;;;;;;;;;;12.84;87.98;96102.28;5078470;28;19954;-74
2022/06/08 06:30:17;;;;;;;;;;;;;;;12.85;86.92;96094.16;5096088;28;19984;-74
2022/06/08 06:32:44;;;;;;;;;;;;;;;12.82;87.18;96091.97;5096012;28;19974;-74
2022/06/08 06:35:18;;;;;;;;;;;;;;;12.85;87.25;96093.34;5095823;28;19951;-74
2022/06/08 06:37:45;;;;;;;;;;;;;;;12.91;88.77;96095.78;5096286;28;19957;-74
2022/06/08 06:40:11;;;;;;;;;;;;;;;12.99;87.35;96089.34;5095803;28;19958;-74
2022/06/08 06:42:37;;;;;;;;;;;;;;;13.03;86.77;96089.66;5096467;28;19951;-74
2022/06/08 06:45:03;;;;;;;;;;;;;;;13.06;85.99;96092.63;5096080;28;20373;-74
2022/06/08 06:47:29;;;;;;;;;;;;;;;13.10;86.50;96096.34;5095684;28;20403;-74
2022/06/08 06:49:56;;;;;;;;;;;;;;;13.16;87.14;96100.63;5095546;28;19990;-74
2022/06/08 06:52:22;;;;;;;;;;;;;;;13.25;87.48;96093.13;5096212;28;19961;-74
2022/06/08 06:54:48;;;;;;;;;;;;;;;13.33;85.72;96089.28;5095764;28;19955;-74
2022/06/08 06:57:14;;;;;;;;;;;;;;;13.37;85.89;96096.44;5095463;28;19953;-73
2022/06/08 06:59:41;;;;;;;;;;;;;;;13.51;88.26;96096.91;5095654;28;20395;-74
2022/06/08 07:02:14;;;;;;;;;;;;;;;13.59;86.47;96088.56;5095423;28;19964;-74
2022/06/08 07:04:40;;;;;;;;;;;;;;;13.70;86.74;96086.84;5095367;28;20316;-74
2022/06/08 07:07:07;;;;;;;;;;;;;;;13.76;85.77;96083.22;5095999;28;19966;-74
2022/06/08 07:09:33;;;;;;;;;;;;;;;13.81;84.72;96079.84;5095370;28;20316;-74
2022/06/08 07:11:59;;;;;;;;;;;;;;;13.88;84.79;96071.75;5095514;28;19957;-73
2022/06/08 07:14:25;;;;;;;;;;;;;;;14.00;85.40;96069.78;5095150;28;19988;-73
2022/06/08 07:16:52;;;;;;;;;;;;;;;14.12;84.20;96075.69;5095275;28;20051;-74
2022/06/08 07:19:18;;;;;;;;;;;;;;;14.26;84.69;96060.28;5095013;28;19960;-73
2022/06/08 07:21:44;;;;;;;;;;;;;;;14.46;83.41;96056.22;5095576;28;19958;-73
2022/06/08 07:24:22;;;;;;;;;;;;;;;14.74;83.63;96063.84;5095186;28;19954;-73
2022/06/08 07:26:48;;;;;;;;;;;;;;;15.10;81.26;96045.59;5095167;28;19961;-73
2022/06/08 07:29:14;;;;;;;;;;;;;;;15.48;79.83;96038.34;5095074;28;20015;-73
2022/06/08 07:31:41;;;;;;;;;;;;;;;15.88;77.45;96028.19;5075675;28;20360;-73
2022/06/08 07:34:07;;;;;;;;;;;;;;;16.14;77.41;96029.81;5094853;28;19976;-74
2022/06/08 07:36:33;;;;;;;;;;;;;;;16.48;76.97;96023.97;5094770;28;19954;-74
2022/06/08 07:38:59;;;;;;;;;;;;;;;16.79;74.10;96006.22;5094770;28;20413;-73
2022/06/08 07:41:25;;;;;;;;;;;;;;;16.99;74.07;96013.38;5093675;28;19966;-74
2022/06/08 07:43:51;;;;;;;;;;;;;;;17.12;74.04;96006.69;5094627;28;19967;-74
2022/06/08 07:46:19;;;;;;;;;;;;;;;17.27;73.88;96011.16;5076690;28;19962;-74
2022/06/08 07:51:30;;;;;;;;;;;;;;;17.75;73.94;95990.25;5094458;28;19959;-74
2022/06/08 07:53:56;;;;;;;;;;;;;;;17.96;71.83;95982.19;5094968;28;19973;-74
2022/06/08 07:56:22;;;;;;;;;;;;;;;17.96;69.25;95967.06;5094362;28;20411;-75
2022/06/08 07:58:48;;;;;;;;;;;;;;;18.08;71.76;95981.81;5094539;28;19967;-73
2022/06/08 08:01:14;;;;;;;;;;;;;;;18.12;70.06;95959.78;5094796;28;20357;-73
2022/06/08 08:03:40;;;;;;;;;;;;;;;18.21;71.15;95970.59;5094244;28;19959;-73
2022/06/08 08:06:07;;;;;;;;;;;;;;;18.25;70.60;95961.78;5094185;28;19965;-74
2022/06/08 08:08:33;;;;;;;;;;;;;;;18.35;69.66;95955.59;5094283;28;19953;-73
2022/06/08 08:10:59;;;;;;;;;;;;;;;18.45;69.36;95952.84;5094093;28;19958;-74
2022/06/08 08:13:25;;;;;;;;;;;;;;;18.59;70.68;95963.59;5094674;28;19982;-73
2022/06/08 08:15:51;;;;;;;;;;;;;;;18.64;68.09;95950.25;5094127;28;19967;-74
2022/06/08 08:18:17;;;;;;;;;;;;;;;18.66;68.66;95948.13;5094126;28;19958;-74
2022/06/08 08:20:43;;;;;;;;;;;;;;;18.82;69.33;95956.75;5093884;28;19947;-73
2022/06/08 08:23:09;;;;;;;;;;;;;;;18.99;70.56;95966.16;5094084;28;20041;-73
2022/06/08 08:25:35;;;;;;;;;;;;;;;19.12;70.81;95954.81;5093918;28;20032;-75
2022/06/08 08:28:01;;;;;;;;;;;;;;;19.24;68.41;95936.59;5094043;28;19965;-73
2022/06/08 08:30:28;;;;;;;;;;;;;;;19.28;68.40;95942.16;5075335;28;19984;-74
2022/06/08 08:33:12;;;;;;;;;;;;;;;19.23;70.02;95950.97;5079247;28;19967;-73
2022/06/08 08:35:38;;;;;;;;;;;;;;;19.10;68.05;95930.41;5094042;28;19996;-74
2022/06/08 08:38:04;;;;;;;;;;;;;;;18.91;67.81;95934.88;5093653;28;20023;-73
2022/06/08 08:40:30;;;;;;;;;;;;;;;18.67;69.61;95948.94;5093639;28;19969;-74
2022/06/08 08:42:56;;;;;;;;;;;;;;;18.61;70.91;95950.84;5093515;28;19954;-74
2022/06/08 08:45:23;;;;;;;;;;;;;;;18.61;69.85;95944.75;5093072;28;19960;-74
2022/06/08 08:48:02;;;;;;;;;;;;;;;18.60;71.16;95946.59;5094063;28;20307;-73
2022/06/08 08:50:31;;;;;;;;;;;;;;;18.70;69.35;95931.63;5094060;28;19961;-74
2022/06/08 08:53:00;;;;;;;;;;;;;;;18.88;69.37;95928.28;5075565;28;19967;-74
2022/06/08 08:55:28;;;;;;;;;;;;;;;19.03;70.36;95930.75;5093499;28;19957;-74
2022/06/08 08:58:03;;;;;;;;;;;;;;;19.26;68.79;95921.16;5093709;28;19952;-73
2022/06/08 09:00:57;;;;;;;;;;;;;;;19.38;65.50;95896.00;5084427;28;19964;-73
2022/06/08 09:03:49;;;;;;;;;;;;;;;19.41;67.09;95901.53;5093349;28;19952;-74
2022/06/08 09:06:18;;;;;;;;;;;;;;;19.66;67.00;95904.94;5091771;28;19954;-73
2022/06/08 09:08:49;;;;;;;;;;;;;;;19.88;64.67;95880.38;5075563;28;19955;-73
2022/06/08 09:11:16;;;;;;;;;;;;;;;20.03;62.22;95856.19;5093451;28;19947;-73
2022/06/08 09:13:45;;;;;;;;;;;;;;;20.10;62.91;95850.50;5093359;28;19965;-74
2022/06/08 09:16:24;;;;;;;;;;;;;;;20.20;64.04;95868.13;5093652;28;19967;-73
2022/06/08 09:18:50;;;;;;;;;;;;;;;20.18;57.97;95814.41;5081941;28;20332;-74
2022/06/08 09:21:19;;;;;;;;;;;;;;;20.18;59.63;95820.53;5093345;28;19958;-73
2022/06/08 09:23:56;;;;;;;;;;;;;;;20.22;60.16;95818.06;5090212;28;20358;-74
2022/06/08 09:26:43;;;;;;;;;;;;;;;20.15;57.78;95789.16;5082410;28;19949;-74
2022/06/08 09:29:12;;;;;;;;;;;;;;;20.13;59.95;95820.59;5093348;28;19952;-73
2022/06/08 09:31:38;;;;;;;;;;;;;;;20.07;59.88;95811.94;5093162;28;19979;-73
2022/06/08 09:34:27;;;;;;;;;;;;;;;20.08;61.90;95842.00;5093204;28;20430;-74
2022/06/08 09:37:09;;;;;;;;;;;;;;;20.19;58.92;95797.34;5093212;28;19957;-73
2022/06/08 09:39:35;;;;;;;;;;;;;;;20.36;53.65;95730.19;5092458;28;19958;-74
2022/06/08 09:42:10;;;;;;;;;;;;;;;20.56;53.30;95724.44;5093365;28;19963;-74
2022/06/08 09:44:41;;;;;;;;;;;;;;;20.58;59.35;95798.75;5092829;28;19949;-74
2022/06/08 09:53:01;;;;;;;;;;;;;;;20.36;52.46;95717.66;5092198;28;19956;-75
2022/06/08 09:55:39;;;;;;;;;;;;;;;20.41;51.37;95688.28;5094565;28;20071;-74
2022/06/08 09:58:05;;;;;;;;;;;;;;;20.61;56.81;95753.66;5097006;28;19955;-74
2022/06/08 10:00:42;;;;;;;;;;;;;;;20.65;50.09;95684.59;5096609;28;19963;-73
2022/06/08 10:03:13;;;;;;;;;;;;;;;20.92;50.13;95674.94;5095558;28;19953;-73
2022/06/08 10:05:42;;;;;;;;;;;;;;;21.20;52.15;95699.56;5096856;28;19957;-74
2022/06/08 10:08:11;;;;;;;;;;;;;;;21.37;46.43;95699.69;5096509;28;19952;-73
2022/06/08 10:10:40;;;;;;;;;;;;;;;21.52;49.53;95737.75;5096660;28;20402;-74
2022/06/08 10:13:26;;;;;;;;;;;;;;;21.65;44.92;95736.91;5081336;28;20339;-74
2022/06/08 10:15:54;;;;;;;;;;;;;;;21.65;46.46;95752.94;5096305;28;19962;-74
2022/06/08 10:18:24;;;;;;;;;;;;;;;21.82;48.08;95765.56;5096440;28;19964;-73
2022/06/08 10:20:55;;;;;;;;;;;;;;;22.03;49.56;95771.94;5096319;28;19963;-74
2022/06/08 10:23:29;;;;;;;;;;;;;;;22.26;46.57;95751.31;5044262;28;20443;-74
2022/06/08 10:25:59;;;;;;;;;;;;;;;22.29;45.08;95742.69;5095754;28;19958;-73
2022/06/08 10:28:28;;;;;;;;;;;;;;;22.13;44.61;95764.75;5096234;28;19948;-74
2022/06/08 10:30:54;;;;;;;;;;;;;;;22.00;45.02;95763.75;5096209;28;20425;-74
2022/06/08 10:33:25;;;;;;;;;;;;;;;22.17;44.63;95755.03;5094960;28;20080;-73
2022/06/08 10:35:54;;;;;;;;;;;;;;;22.13;41.92;95741.50;5096661;28;19957;-74
2022/06/08 10:38:30;;;;;;;;;;;;;;;22.24;43.33;95756.19;5095915;28;19961;-73
2022/06/08 10:41:00;;;;;;;;;;;;;;;22.36;41.68;95731.53;5095946;28;19976;-74
2022/06/08 10:43:28;;;;;;;;;;;;;;;22.44;43.59;95746.81;5095857;28;19946;-73
2022/06/08 10:45:54;;;;;;;;;;;;;;;22.57;45.65;95761.13;5095662;28;19955;-74
2022/06/08 10:48:24;;;;;;;;;;;;;;;22.72;43.27;95743.06;5095654;28;20338;-74
2022/06/08 10:51:11;;;;;;;;;;;;;;;22.84;41.70;95733.34;5095786;28;20335;-73
2022/06/08 10:56:23;;;;;;;;;;;;;;;22.68;38.72;95722.34;5095590;28;19962;-73
2022/06/08 10:58:54;;;;;;;;;;;;;;;22.79;41.62;95740.75;5095526;28;19960;-74
2022/06/08 11:01:33;;;;;;;;;;;;;;;22.95;37.59;95722.34;5095527;28;19971;-74
2022/06/08 11:04:00;;;;;;;;;;;;;;;23.12;38.19;95722.38;5087716;28;19963;-74
2022/06/08 11:06:44;;;;;;;;;;;;;;;22.93;38.16;95716.50;5094653;28;20007;-74
2022/06/08 11:09:17;;;;;;;;;;;;;;;22.98;43.61;95745.78;5095217;28;19960;-74
2022/06/08 11:11:49;;;;;;;;;;;;;;;22.97;41.89;95741.53;5095261;28;19954;-74
2022/06/08 11:14:25;;;;;;;;;;;;;;;23.05;40.79;95732.75;5095348;28;19967;-74
2022/06/08 11:16:52;;;;;;;;;;;;;;;22.98;41.78;95743.13;5095393;28;19983;-74
2022/06/08 11:19:23;;;;;;;;;;;;;;;22.81;41.46;95725.97;5043021;28;19962;-73
2022/06/08 11:21:51;;;;;;;;;;;;;;;22.71;42.50;95728.94;5095553;28;19969;-73
2022/06/08 11:24:35;;;;;;;;;;;;;;;22.82;41.58;95732.88;5093914;28;20333;-74
2022/06/08 11:27:10;;;;;;;;;;;;;;;22.72;38.81;95698.44;5094902;28;19954;-74
2022/06/08 11:29:39;;;;;;;;;;;;;;;22.78;37.86;95699.84;5094741;28;19953;-74
2022/06/08 11:32:07;;;;;;;;;;;;;;;22.77;40.04;95708.97;5094843;28;20379;-74
2022/06/08 11:34:55;;;;;;;;;;;;;;;22.80;40.97;95710.22;5094924;28;19980;-74
2022/06/08 11:37:39;;;;;;;;;;;;;;;22.85;40.95;95707.41;5095093;28;19963;-74
2022/06/08 11:40:12;;;;;;;;;;;;;;;23.04;39.93;95704.44;5095026;28;19957;-74
2022/06/08 11:42:47;;;;;;;;;;;;;;;23.25;41.76;95716.06;5095007;28;19947;-73
2022/06/08 11:45:15;;;;;;;;;;;;;;;23.39;39.65;95697.16;5094537;28;19962;-73
2022/06/08 11:47:48;;;;;;;;;;;;;;;23.43;39.94;95698.06;5094454;28;19959;-75
2022/06/08 11:50:16;;;;;;;;;;;;;;;23.43;40.55;95711.44;5094566;28;19953;-74
2022/06/08 11:52:44;;;;;;;;;;;;;;;23.55;41.11;95700.09;5093945;28;19962;-75
2022/06/08 11:55:19;;;;;;;;;;;;;;;23.61;37.93;95681.97;5094656;28;19984;-74
2022/06/08 11:58:08;;;;;;;;;;;;;;;23.43;40.15;95692.72;5094401;28;19953;-74
2022/06/08 12:00:51;;;;;;;;;;;;;;;23.27;39.74;95689.78;5094459;28;20317;-74
2022/06/08 12:03:16;;;;;;;;;;;;;;;23.10;39.58;95681.78;5094430;28;19965;-74
2022/06/08 12:05:51;;;;;;;;;;;;;;;23.06;41.11;95699.56;5076662;28;20337;-74
2022/06/08 12:08:22;;;;;;;;;;;;;;;23.15;41.16;95694.22;5094494;28;20332;-73
2022/06/08 12:10:48;;;;;;;;;;;;;;;23.22;41.23;95689.94;5094176;28;19953;-74
2022/06/08 12:13:16;;;;;;;;;;;;;;;23.18;40.52;95686.34;5094045;28;19964;-74
2022/06/08 12:15:48;;;;;;;;;;;;;;;23.17;39.99;95686.66;5093774;28;19974;-74
2022/06/08 12:18:21;;;;;;;;;;;;;;;23.27;39.75;95686.31;5094039;28;20402;-74
2022/06/08 12:20:48;;;;;;;;;;;;;;;23.27;40.84;95692.44;5082737;28;20341;-74
2022/06/08 12:23:14;;;;;;;;;;;;;;;23.30;40.23;95680.31;5093886;28;19956;-74
2022/06/08 12:25:40;;;;;;;;;;;;;;;23.29;40.41;95692.91;5093890;28;20400;-74
2022/06/08 12:28:06;;;;;;;;;;;;;;;23.26;38.15;95669.47;5094232;28;19958;-74
2022/06/08 12:30:34;;;;;;;;;;;;;;;23.18;38.54;95675.66;5093712;28;20298;-73
2022/06/08 12:33:02;;;;;;;;;;;;;;;23.26;41.14;95688.19;5093837;28;19966;-74
2022/06/08 12:35:28;;;;;;;;;;;;;;;23.37;39.68;95667.25;5093879;28;20456;-74
2022/06/08 12:38:10;;;;;;;;;;;;;;;23.49;41.52;95688.00;5093839;28;20049;-73
2022/06/08 12:40:36;;;;;;;;;;;;;;;23.51;40.01;95678.53;5094172;28;20330;-74
2022/06/08 12:43:08;;;;;;;;;;;;;;;23.49;40.57;95669.25;5092713;28;19984;-73
2022/06/08 12:45:35;;;;;;;;;;;;;;;23.43;39.12;95657.16;5093784;28;19956;-73
2022/06/08 12:48:16;;;;;;;;;;;;;;;23.37;39.89;95661.09;5092605;28;19958;-74
2022/06/08 12:50:42;;;;;;;;;;;;;;;23.28;40.87;95669.94;5093532;28;19953;-74
2022/06/08 12:53:08;;;;;;;;;;;;;;;23.29;40.97;95676.09;5092502;28;19955;-74
2022/06/08 12:56:02;;;;;;;;;;;;;;;23.22;39.68;95660.50;5077517;28;19960;-75
2022/06/08 12:58:28;;;;;;;;;;;;;;;23.06;38.14;95651.44;5093620;28;19954;-74
2022/06/08 13:00:54;;;;;;;;;;;;;;;23.01;40.35;95663.06;5092883;28;20018;-74
2022/06/08 13:03:24;;;;;;;;;;;;;;;23.03;40.47;95660.06;5094007;28;20460;-73
2022/06/08 13:05:50;;;;;;;;;;;;;;;23.06;40.99;95656.78;5093485;28;19954;-74
2022/06/08 13:08:20;;;;;;;;;;;;;;;22.94;40.85;95661.97;5092465;28;19971;-74
2022/06/08 13:10:50;;;;;;;;;;;;;;;23.03;41.59;95662.75;5093552;28;20356;-74
2022/06/08 13:13:37;;;;;;;;;;;;;;;23.09;41.05;95662.25;5093729;28;20312;-74